Impacts TAF Board
For situational awareness. Not to be used for flight planning purposes.
IDs:

KDTW - Detroit Metro/Wayne, MI, US

Issued at 1727 UTC 23 Jan 2019
Updated at 1903 UTC 23 Jan 2019
Potential Impact None Slight Moderate High
Time<<24/08Z 24/09Z 24/10Z 24/11Z 24/12Z 24/13Z 24/14Z 24/15Z 24/16Z 24/17Z 24/18Z 24/19Z 24/20Z>>
Type PRVL PRVL PRVL PRVL PRVL PRVL PRVL PRVL PRVL PRVL PRVL PRVL PRVL
VIS >6 >6 >6 >6 >6 >6 >6 >6 >6 >6 >6 >6 >6
CIG 15 15 15 15 15 15 25 25 25 25 25 25 25
Cover OVC OVC OVC OVC OVC OVC OVC OVC OVC OVC OVC OVC OVC
FltCat MVFR MVFR MVFR MVFR MVFR MVFR MVFR MVFR MVFR MVFR MVFR MVFR MVFR
WX -- -- -- -- -- -- -- -- -- -- -- -- --
WDir 280 280 280 280 280 280 280 280 280 280 280 280 280
WSpd 10 10 10 10 10 10 12 12 12 12 12 12 12
WGst -- -- -- -- -- -- -- -- -- -- -- -- --
Raw TAF
KDTW 231727Z 2318/2424 20015G22KT 5SM -SHRA BR OVC006
  TEMPO 2318/2322 2SM -DZ BR OVC006
  FM232200 23014G22KT 6SM BR OVC008
  FM240300 28010KT P6SM OVC015
  FM241400 28012KT P6SM OVC025


METAR Board
Radar Display
Forecast Discussion
For situational awareness. Not to be used for flight planning purposes.